createdAt,value
2023-03-24T00:00:00.643Z,13.38
2023-03-24T00:02:41.735Z,13.30
2023-03-24T00:05:16.917Z,13.20
2023-03-24T00:07:54.518Z,13.10
2023-03-24T00:10:30.693Z,13.00
2023-03-24T00:13:04.400Z,12.90
2023-03-24T00:15:37.565Z,12.90
2023-03-24T00:18:10.979Z,12.90
2023-03-24T00:20:46.288Z,12.90
2023-03-24T00:23:19.670Z,12.90
2023-03-24T00:26:03.517Z,12.90
2023-03-24T00:28:38.232Z,12.80
2023-03-24T00:31:14.872Z,12.80
2023-03-24T00:33:51.359Z,12.70
2023-03-24T00:36:27.177Z,12.60
2023-03-24T00:39:00.580Z,12.60
2023-03-24T00:41:33.955Z,12.50
2023-03-24T00:44:10.088Z,12.40
2023-03-24T00:46:46.285Z,12.30
2023-03-24T00:49:26.103Z,12.30
2023-03-24T00:51:59.271Z,12.28
2023-03-24T00:54:32.381Z,12.26
2023-03-24T00:57:05.578Z,12.30
2023-03-24T00:59:42.604Z,12.30
2023-03-24T01:02:16.320Z,12.40
2023-03-24T01:04:49.583Z,12.42
2023-03-24T01:07:22.860Z,12.50
2023-03-24T01:09:58.857Z,12.58
2023-03-24T01:12:36.980Z,12.60
2023-03-24T01:15:15.091Z,12.60
2023-03-24T01:17:48.922Z,12.60
2023-03-24T01:20:23.425Z,12.60
2023-03-24T01:22:56.842Z,12.60
2023-03-24T01:25:30.707Z,12.62
2023-03-24T01:28:03.974Z,12.70
2023-03-24T01:30:37.685Z,12.70
2023-03-24T01:33:11.827Z,12.70
2023-03-24T01:35:45.028Z,12.70
2023-03-24T01:38:18.820Z,12.72
2023-03-24T01:40:52.790Z,12.70
2023-03-24T01:43:31.469Z,12.72
2023-03-24T01:46:14.887Z,12.80
2023-03-24T01:48:53.489Z,12.80
2023-03-24T01:51:31.679Z,12.80
2023-03-24T01:54:13.546Z,12.80
2023-03-24T01:56:51.841Z,12.88
2023-03-24T01:59:28.945Z,12.90
2023-03-24T02:02:22.322Z,12.94
2023-03-24T02:05:03.675Z,13.00
2023-03-24T02:07:49.733Z,13.08
2023-03-24T02:10:25.282Z,13.10
2023-03-24T02:12:58.382Z,13.20
2023-03-24T02:15:35.025Z,13.20
2023-03-24T02:18:21.177Z,13.24
2023-03-24T02:21:51.728Z,13.30
2023-03-24T02:25:20.115Z,13.30
2023-03-24T02:28:22.592Z,13.40
2023-03-24T02:31:58.315Z,13.40
2023-03-24T02:35:16.393Z,13.40
2023-03-24T02:38:26.607Z,13.40
2023-03-24T02:41:06.064Z,13.40
2023-03-24T02:43:50.399Z,13.40
2023-03-24T02:46:28.849Z,13.40
2023-03-24T02:49:20.045Z,13.40
2023-03-24T02:52:01.677Z,13.40
2023-03-24T02:54:42.421Z,13.40
2023-03-24T02:57:22.554Z,13.44
2023-03-24T03:00:21.593Z,13.46
2023-03-24T03:03:23.774Z,13.50
2023-03-24T03:06:03.261Z,13.50
2023-03-24T03:08:39.415Z,13.48
2023-03-24T03:11:17.506Z,13.42
2023-03-24T03:13:57.733Z,13.44
2023-03-24T03:16:38.695Z,13.40
2023-03-24T03:19:18.167Z,13.40
2023-03-24T03:21:54.277Z,13.40
2023-03-24T03:24:33.623Z,13.40
2023-03-24T03:27:14.971Z,13.36
2023-03-24T03:29:54.521Z,13.30
2023-03-24T03:32:31.563Z,13.30
2023-03-24T03:35:11.421Z,13.30
2023-03-24T03:37:52.893Z,13.30
2023-03-24T03:40:31.380Z,13.30
2023-03-24T03:43:09.424Z,13.22
2023-03-24T03:45:42.788Z,13.20
2023-03-24T03:48:17.207Z,13.20
2023-03-24T03:50:55.268Z,13.20
2023-03-24T03:53:45.663Z,13.20
2023-03-24T03:56:23.361Z,13.20
2023-03-24T03:59:28.243Z,13.20
2023-03-24T04:02:02.489Z,13.20
2023-03-24T04:05:14.361Z,13.10
2023-03-24T04:08:35.237Z,13.10
2023-03-24T04:11:55.257Z,13.10
2023-03-24T04:15:10.841Z,13.06
2023-03-24T04:18:22.879Z,13.00
2023-03-24T04:21:18.646Z,13.00
2023-03-24T04:24:02.513Z,13.00
2023-03-24T04:26:45.576Z,12.98
2023-03-24T04:29:26.888Z,12.92
2023-03-24T04:32:09.003Z,12.90
2023-03-24T04:34:46.468Z,12.90
2023-03-24T04:37:38.262Z,12.90
2023-03-24T04:40:26.949Z,12.92
2023-03-24T04:43:03.251Z,12.92
2023-03-24T04:45:37.535Z,12.90
2023-03-24T04:48:37.147Z,12.90
2023-03-24T04:51:30.208Z,12.90
2023-03-24T04:54:09.550Z,12.90
2023-03-24T04:56:48.658Z,12.90
2023-03-24T04:59:26.121Z,12.98
2023-03-24T05:02:00.031Z,13.00
2023-03-24T05:04:38.238Z,13.00
2023-03-24T05:07:33.138Z,13.00
2023-03-24T05:10:09.706Z,13.00
2023-03-24T05:12:48.164Z,13.00
2023-03-24T05:15:27.193Z,13.10
2023-03-24T05:18:12.091Z,13.10
2023-03-24T05:20:48.430Z,13.18
2023-03-24T05:23:24.984Z,13.20
2023-03-24T05:25:58.490Z,13.22
2023-03-24T05:28:32.541Z,13.30
2023-03-24T05:31:05.925Z,13.30
2023-03-24T05:33:49.949Z,13.40
2023-03-24T05:36:24.577Z,13.40
2023-03-24T05:39:01.421Z,13.40
2023-03-24T05:41:44.114Z,13.50
2023-03-24T05:44:17.314Z,13.54
2023-03-24T05:46:57.897Z,13.60
2023-03-24T05:49:31.907Z,13.62
2023-03-24T05:52:06.169Z,13.70
2023-03-24T05:54:39.693Z,13.80
2023-03-24T05:57:23.136Z,13.84
2023-03-24T06:00:23.654Z,13.90
2023-03-24T06:03:06.105Z,13.92
2023-03-24T06:05:51.080Z,14.00
2023-03-24T06:08:24.774Z,14.00
2023-03-24T06:11:03.161Z,14.00
2023-03-24T06:13:36.849Z,14.10
2023-03-24T06:16:12.458Z,14.20
2023-03-24T06:18:52.942Z,14.20
2023-03-24T06:21:54.362Z,14.30
2023-03-24T06:24:30.782Z,14.40
2023-03-24T06:27:09.463Z,14.40
2023-03-24T06:29:43.666Z,14.50
2023-03-24T06:32:19.991Z,14.50
2023-03-24T06:34:53.337Z,14.50
2023-03-24T06:38:01.516Z,14.60
2023-03-24T06:40:35.508Z,14.60
2023-03-24T06:43:09.793Z,14.60
2023-03-24T06:45:45.150Z,14.70
2023-03-24T06:48:24.980Z,14.80
2023-03-24T06:51:01.141Z,14.90
2023-03-24T06:53:34.286Z,15.10
2023-03-24T06:56:08.481Z,15.20
2023-03-24T06:58:46.575Z,15.32
2023-03-24T07:01:31.261Z,15.40
2023-03-24T07:04:09.470Z,15.40
2023-03-24T07:07:53.451Z,15.50
2023-03-24T07:10:36.578Z,15.50
2023-03-24T07:13:09.985Z,15.50
2023-03-24T07:15:43.685Z,15.50
2023-03-24T07:18:17.103Z,15.50
2023-03-24T07:20:51.905Z,15.40
2023-03-24T07:23:27.896Z,15.40
2023-03-24T07:26:17.538Z,15.50
2023-03-24T07:28:53.697Z,15.50
2023-03-24T07:31:38.562Z,15.50
2023-03-24T07:34:14.508Z,15.54
2023-03-24T07:36:47.829Z,15.60
2023-03-24T07:39:22.574Z,15.60
2023-03-24T07:41:56.002Z,15.50
2023-03-24T07:44:39.245Z,15.44
2023-03-24T07:47:12.653Z,15.30
2023-03-24T07:49:46.472Z,15.18
2023-03-24T07:52:19.834Z,15.10
2023-03-24T07:54:56.509Z,15.00
2023-03-24T07:57:49.688Z,14.90
2023-03-24T08:00:25.305Z,14.88
2023-03-24T08:03:15.880Z,14.80
2023-03-24T08:05:52.959Z,14.70
2023-03-24T08:08:36.656Z,14.70
2023-03-24T08:11:09.915Z,14.60
2023-03-24T08:13:42.976Z,14.60
2023-03-24T08:16:16.241Z,14.60
2023-03-24T08:18:50.974Z,14.60
2023-03-24T08:21:24.099Z,14.58
2023-03-24T08:23:57.476Z,14.60
2023-03-24T08:26:35.335Z,14.70
2023-03-24T08:29:08.540Z,14.90
2023-03-24T08:31:41.739Z,15.20
2023-03-24T08:34:15.254Z,15.50
2023-03-24T08:36:48.587Z,15.86
2023-03-24T08:39:22.078Z,16.32
2023-03-24T08:41:55.858Z,16.80
2023-03-24T08:44:30.237Z,17.22
2023-03-24T08:47:06.536Z,17.58
2023-03-24T08:49:39.724Z,17.80
2023-03-24T08:52:12.757Z,17.80
2023-03-24T08:54:45.998Z,17.80
2023-03-24T08:57:19.356Z,17.68
2023-03-24T08:59:52.398Z,17.56
2023-03-24T09:02:26.417Z,17.48
2023-03-24T09:04:59.905Z,17.40
2023-03-24T09:07:33.031Z,17.30
2023-03-24T09:10:07.567Z,17.26
2023-03-24T09:12:41.771Z,17.30
2023-03-24T09:15:16.464Z,17.30
2023-03-24T09:17:49.701Z,17.40
2023-03-24T09:20:22.946Z,17.50
2023-03-24T09:22:56.360Z,17.50
2023-03-24T09:25:29.571Z,17.58
2023-03-24T09:28:02.745Z,17.60
2023-03-24T09:30:36.041Z,17.60
2023-03-24T09:33:09.314Z,17.60
2023-03-24T09:35:43.127Z,17.70
2023-03-24T09:38:16.224Z,17.88
2023-03-24T09:40:54.360Z,18.00
2023-03-24T09:43:37.789Z,18.20
2023-03-24T09:46:17.194Z,18.30
2023-03-24T09:48:53.727Z,18.40
2023-03-24T09:51:29.186Z,18.40
2023-03-24T09:54:13.209Z,18.40
2023-03-24T09:56:51.330Z,18.32
2023-03-24T09:59:34.367Z,18.20
2023-03-24T10:02:15.250Z,18.18
2023-03-24T10:04:48.987Z,18.10
2023-03-24T10:07:31.019Z,18.10
2023-03-24T10:10:05.590Z,18.20
2023-03-24T10:12:46.203Z,18.30
2023-03-24T10:15:37.225Z,18.38
2023-03-24T10:18:30.267Z,18.40
2023-03-24T10:21:13.959Z,18.50
2023-03-24T10:23:55.822Z,18.70
2023-03-24T10:26:40.237Z,19.10
2023-03-24T10:29:26.155Z,19.68
2023-03-24T10:32:05.180Z,20.26
2023-03-24T10:34:39.842Z,20.64
2023-03-24T10:37:15.794Z,21.02
2023-03-24T10:39:48.814Z,21.70
2023-03-24T10:42:29.938Z,21.82
2023-03-24T10:45:03.242Z,21.98
2023-03-24T10:47:37.623Z,22.10
2023-03-24T10:50:15.014Z,22.70
2023-03-24T10:52:51.185Z,23.66
2023-03-24T10:55:31.773Z,24.80
2023-03-24T10:58:05.632Z,25.70
2023-03-24T11:00:42.769Z,25.24
2023-03-24T11:03:24.739Z,24.42
2023-03-24T11:06:03.688Z,23.46
2023-03-24T11:08:42.171Z,22.70
2023-03-24T11:11:36.140Z,21.98
2023-03-24T11:14:25.549Z,21.38
2023-03-24T11:17:12.382Z,20.98
2023-03-24T11:19:54.070Z,20.70
2023-03-24T11:22:28.236Z,20.50
2023-03-24T11:25:01.277Z,20.50
2023-03-24T11:27:42.538Z,20.50
2023-03-24T11:30:19.105Z,20.42
2023-03-24T11:32:52.253Z,20.40
2023-03-24T11:35:39.120Z,20.50
2023-03-24T11:38:21.960Z,20.50
2023-03-24T11:41:05.187Z,20.44
2023-03-24T11:43:38.350Z,20.50
2023-03-24T11:46:21.036Z,20.40
2023-03-24T11:48:57.734Z,20.40
2023-03-24T11:51:37.247Z,20.30
2023-03-24T11:54:16.294Z,20.18
2023-03-24T11:56:53.071Z,20.20
2023-03-24T11:59:38.556Z,20.30
2023-03-24T12:02:26.104Z,20.30
2023-03-24T12:05:28.250Z,20.10
2023-03-24T12:08:28.852Z,20.00
2023-03-24T12:11:13.549Z,19.80
2023-03-24T12:13:50.369Z,19.70
2023-03-24T12:16:40.286Z,19.70
2023-03-24T12:19:47.132Z,19.60
2023-03-24T12:22:34.531Z,19.60
2023-03-24T12:25:31.840Z,19.60
2023-03-24T12:28:30.705Z,19.54
2023-03-24T12:31:22.203Z,19.40
2023-03-24T12:34:06.608Z,19.30
2023-03-24T12:36:53.667Z,19.20
2023-03-24T12:39:33.336Z,19.10
2023-03-24T12:42:14.899Z,19.00
2023-03-24T12:45:21.239Z,18.90
2023-03-24T12:48:12.460Z,18.90
2023-03-24T12:50:59.302Z,18.80
2023-03-24T12:53:47.587Z,18.80
2023-03-24T12:56:26.164Z,18.80
2023-03-24T12:59:08.112Z,18.80
2023-03-24T13:01:46.005Z,18.80
2023-03-24T13:04:23.969Z,18.80
2023-03-24T13:07:02.711Z,18.90
2023-03-24T13:09:48.206Z,18.90
2023-03-24T13:12:24.893Z,18.90
2023-03-24T13:15:05.262Z,18.90
2023-03-24T13:17:40.915Z,18.90
2023-03-24T13:20:30.161Z,18.80
2023-03-24T13:23:14.775Z,18.70
2023-03-24T13:25:59.944Z,18.60
2023-03-24T13:28:41.107Z,18.40
2023-03-24T13:31:16.792Z,18.28
2023-03-24T13:33:52.535Z,18.10
2023-03-24T13:36:42.645Z,18.00
2023-03-24T13:39:20.934Z,17.90
2023-03-24T13:41:57.182Z,17.90
2023-03-24T13:44:40.111Z,17.80
2023-03-24T13:47:17.904Z,17.80
2023-03-24T13:50:01.168Z,17.80
2023-03-24T13:52:40.121Z,17.70
2023-03-24T13:55:22.688Z,17.70
2023-03-24T13:58:01.933Z,17.70
2023-03-24T14:00:35.099Z,17.66
2023-03-24T14:03:36.963Z,17.70
2023-03-24T14:06:11.625Z,17.70
2023-03-24T14:09:03.604Z,17.70
2023-03-24T14:12:08.734Z,17.70
2023-03-24T14:15:21.792Z,17.70
2023-03-24T14:17:57.959Z,17.80
2023-03-24T14:21:04.041Z,17.90
2023-03-24T14:23:42.223Z,18.10
2023-03-24T14:26:31.093Z,18.10
2023-03-24T14:29:04.351Z,18.20
2023-03-24T14:31:38.985Z,18.10
2023-03-24T14:34:20.510Z,18.10
2023-03-24T14:37:06.503Z,18.10
2023-03-24T14:39:45.718Z,18.10
2023-03-24T14:43:20.119Z,18.10
2023-03-24T14:46:07.863Z,18.04
2023-03-24T14:48:49.608Z,18.02
2023-03-24T14:51:39.996Z,18.06
2023-03-24T14:54:17.748Z,18.10
2023-03-24T14:56:55.597Z,18.30
2023-03-24T14:59:42.668Z,18.60
2023-03-24T15:02:33.797Z,18.80
2023-03-24T15:05:26.725Z,18.90
2023-03-24T15:08:21.781Z,18.90
2023-03-24T15:10:58.883Z,18.90
2023-03-24T15:13:42.742Z,18.90
2023-03-24T15:16:26.429Z,18.80
2023-03-24T15:19:02.668Z,18.80
2023-03-24T15:21:39.260Z,18.80
2023-03-24T15:24:31.284Z,18.90
2023-03-24T15:27:23.642Z,19.08
2023-03-24T15:30:01.491Z,19.20
2023-03-24T15:32:39.176Z,19.30
2023-03-24T15:35:16.842Z,19.30
2023-03-24T15:37:54.333Z,19.30
2023-03-24T15:40:41.406Z,19.30
2023-03-24T15:43:22.774Z,19.20
2023-03-24T15:46:11.223Z,19.20
2023-03-24T15:48:49.283Z,19.10
2023-03-24T15:51:42.842Z,19.00
2023-03-24T15:54:25.101Z,18.90
2023-03-24T15:57:19.659Z,18.80
2023-03-24T16:00:11.953Z,18.76
2023-03-24T16:02:52.442Z,18.70
2023-03-24T16:05:28.828Z,18.60
2023-03-24T16:08:04.414Z,18.60
2023-03-24T16:10:42.795Z,18.50
2023-03-24T16:13:24.503Z,18.50
2023-03-24T16:16:03.485Z,18.40
2023-03-24T16:18:38.626Z,18.40
2023-03-24T16:21:18.578Z,18.34
2023-03-24T16:23:53.838Z,18.30
2023-03-24T16:26:29.171Z,18.30
2023-03-24T16:29:15.614Z,18.30
2023-03-24T16:31:51.003Z,18.30
2023-03-24T16:34:25.140Z,18.30
2023-03-24T16:36:58.667Z,18.20
2023-03-24T16:39:32.709Z,18.20
2023-03-24T16:42:05.980Z,18.10
2023-03-24T16:44:39.062Z,18.08
2023-03-24T16:47:15.676Z,18.00
2023-03-24T16:49:48.785Z,17.90
2023-03-24T16:52:21.873Z,17.80
2023-03-24T16:54:55.477Z,17.70
2023-03-24T16:57:28.548Z,17.70
2023-03-24T17:00:10.293Z,17.60
2023-03-24T17:02:46.358Z,17.50
2023-03-24T17:05:27.857Z,17.40
2023-03-24T17:08:01.627Z,17.40
2023-03-24T17:10:35.044Z,17.40
2023-03-24T17:13:08.311Z,17.30
2023-03-24T17:15:41.462Z,17.30
2023-03-24T17:18:14.867Z,17.30
2023-03-24T17:20:49.060Z,17.20
2023-03-24T17:23:22.550Z,17.20
2023-03-24T17:25:56.034Z,17.20
2023-03-24T17:28:29.178Z,17.20
2023-03-24T17:31:02.357Z,17.20
2023-03-24T17:33:36.702Z,17.18
2023-03-24T17:36:14.259Z,17.10
2023-03-24T17:38:48.869Z,17.10
2023-03-24T17:41:22.142Z,17.10
2023-03-24T17:43:55.173Z,17.10
2023-03-24T17:46:28.260Z,17.02
2023-03-24T17:49:01.446Z,16.74
2023-03-24T17:51:34.699Z,16.04
2023-03-24T17:54:10.455Z,15.36
2023-03-24T17:56:43.572Z,14.80
2023-03-24T17:59:17.223Z,14.40
2023-03-24T18:01:50.527Z,14.10
2023-03-24T18:04:24.085Z,13.80
2023-03-24T18:06:57.309Z,13.60
2023-03-24T18:09:32.792Z,13.40
2023-03-24T18:12:06.065Z,13.30
2023-03-24T18:14:39.120Z,13.16
2023-03-24T18:17:12.865Z,13.00
2023-03-24T18:19:45.913Z,12.94
2023-03-24T18:22:19.152Z,12.90
2023-03-24T18:24:53.957Z,12.80
2023-03-24T18:27:27.362Z,12.70
2023-03-24T18:30:00.532Z,12.60
2023-03-24T18:32:36.121Z,12.60
2023-03-24T18:35:11.812Z,12.50
2023-03-24T18:37:44.953Z,12.42
2023-03-24T18:40:18.392Z,12.40
2023-03-24T18:42:51.496Z,12.30
2023-03-24T18:45:24.594Z,12.30
2023-03-24T18:47:57.916Z,12.20
2023-03-24T18:50:31.023Z,12.10
2023-03-24T18:53:04.279Z,12.00
2023-03-24T18:55:37.604Z,11.90
2023-03-24T18:58:15.465Z,11.80
2023-03-24T19:00:54.145Z,11.70
2023-03-24T19:03:29.409Z,11.66
2023-03-24T19:06:07.322Z,11.60
2023-03-24T19:08:44.876Z,11.58
2023-03-24T19:11:19.283Z,11.50
2023-03-24T19:13:52.780Z,11.50
2023-03-24T19:16:29.228Z,11.50
2023-03-24T19:20:28.119Z,11.44
2023-03-24T19:23:02.142Z,11.42
2023-03-24T19:25:36.914Z,11.40
2023-03-24T19:28:11.290Z,11.40
2023-03-24T19:30:45.820Z,11.40
2023-03-24T19:33:20.440Z,11.40
2023-03-24T19:35:55.626Z,11.34
2023-03-24T19:38:29.433Z,11.30
2023-03-24T19:41:07.810Z,11.30
2023-03-24T19:43:41.553Z,11.30
2023-03-24T19:46:16.662Z,11.20
2023-03-24T19:48:50.097Z,11.20
2023-03-24T19:51:24.384Z,11.20
2023-03-24T19:53:57.779Z,11.20
2023-03-24T19:56:31.289Z,11.10
2023-03-24T19:59:05.010Z,11.10
2023-03-24T20:01:38.559Z,11.10
2023-03-24T20:04:12.258Z,11.10
2023-03-24T20:06:46.073Z,11.10
2023-03-24T20:09:20.653Z,11.06
2023-03-24T20:11:56.728Z,11.00
2023-03-24T20:14:31.987Z,11.00
2023-03-24T20:17:05.497Z,11.00
2023-03-24T20:19:39.499Z,11.00
2023-03-24T20:22:13.677Z,11.00
2023-03-24T20:24:48.944Z,11.00
2023-03-24T20:27:23.155Z,11.00
2023-03-24T20:29:58.802Z,11.00
2023-03-24T20:32:32.852Z,11.00
2023-03-24T20:35:07.186Z,11.00
2023-03-24T20:40:35.561Z,10.98
2023-03-24T20:43:12.333Z,11.00
2023-03-24T20:45:47.732Z,10.92
2023-03-24T20:48:24.022Z,10.90
2023-03-24T20:51:00.494Z,10.90
2023-03-24T20:53:36.159Z,10.80
2023-03-24T20:56:15.987Z,10.80
2023-03-24T20:58:50.613Z,10.80
2023-03-24T21:01:25.807Z,10.80
2023-03-24T21:04:08.402Z,10.70
2023-03-24T21:06:44.055Z,10.70
2023-03-24T21:09:18.059Z,10.70
2023-03-24T21:11:52.048Z,10.70
2023-03-24T21:14:26.045Z,10.70
2023-03-24T21:16:59.899Z,10.70
2023-03-24T21:19:33.961Z,10.70
2023-03-24T21:27:22.047Z,10.70
2023-03-24T21:29:55.479Z,10.70
2023-03-24T21:32:28.903Z,10.70
2023-03-24T21:35:02.438Z,10.70
2023-03-24T21:37:35.584Z,10.70
2023-03-24T21:40:10.877Z,10.70
2023-03-24T21:42:44.682Z,10.76
2023-03-24T21:45:20.494Z,10.80
2023-03-24T21:47:55.414Z,10.80
2023-03-24T21:50:30.504Z,10.80
2023-03-24T21:53:06.747Z,10.80
2023-03-24T21:55:39.866Z,10.80
2023-03-24T21:58:12.946Z,10.80
2023-03-24T22:00:47.866Z,10.80
2023-03-24T22:03:21.924Z,10.80
2023-03-24T22:05:56.535Z,10.80
2023-03-24T22:08:30.905Z,10.80
2023-03-24T22:11:04.814Z,10.70
2023-03-24T22:13:39.415Z,10.70
2023-03-24T22:16:13.454Z,10.60
2023-03-24T22:18:47.452Z,10.60
2023-03-24T22:21:20.714Z,10.50
2023-03-24T22:23:53.877Z,10.50
2023-03-24T22:26:27.344Z,10.50
2023-03-24T22:29:00.432Z,10.50
2023-03-24T22:31:33.551Z,10.50
2023-03-24T22:34:06.548Z,10.50
2023-03-24T22:36:39.652Z,10.50
2023-03-24T22:39:12.780Z,10.50
2023-03-24T22:41:46.118Z,10.52
2023-03-24T22:44:19.889Z,10.50
2023-03-24T22:46:53.121Z,10.50
2023-03-24T22:49:26.420Z,10.52
2023-03-24T22:51:59.760Z,10.50
2023-03-24T22:54:33.788Z,10.50
2023-03-24T22:57:07.052Z,10.50
2023-03-24T22:59:40.125Z,10.50
2023-03-24T23:02:13.321Z,10.50
2023-03-24T23:04:46.658Z,10.50
2023-03-24T23:07:19.766Z,10.50
2023-03-24T23:09:53.420Z,10.44
2023-03-24T23:12:26.705Z,10.48
2023-03-24T23:15:01.227Z,10.48
2023-03-24T23:17:34.858Z,10.42
2023-03-24T23:20:12.354Z,10.40
2023-03-24T23:22:45.401Z,10.42
2023-03-24T23:25:19.981Z,10.40
2023-03-24T23:27:53.083Z,10.40
2023-03-24T23:30:26.151Z,10.40
2023-03-24T23:32:59.238Z,10.34
2023-03-24T23:35:33.574Z,10.30
2023-03-24T23:38:06.924Z,10.30
2023-03-24T23:40:40.105Z,10.30
2023-03-24T23:43:13.574Z,10.26
2023-03-24T23:45:48.044Z,10.20
2023-03-24T23:48:21.496Z,10.20
2023-03-24T23:51:01.786Z,10.20
2023-03-24T23:53:35.471Z,10.20
2023-03-24T23:56:12.436Z,10.14
2023-03-24T23:58:46.064Z,10.10
